Manhattan, Indiana
Current Conditions -  °F | °C
As of 1:15 PM on Tuesday 21 Oct 2014 (Local Time) from K4I7 Reporting Station
Broken Clouds Broken Clouds  
Wind Chill: 11°   Ceiling: 4800
Heat Index: 11°   Visibility: 10mi
Dew Point:   Wind: 9mph
Humidity: 71%   Direction: 350°N
Pressure: 30.11"   Gusts: 18mph
Location:  39.6767°N, 86.9214°W
Report Text: K4I7 211715Z AUTO 35008G16KT 10SM SCT024 SCT034 BKN048 11/06 A3011 RMK AO2
Loading
Personal Weather Stations






























Interactive Weather Map
Tropical Storm Tracking
New forecast layout! Learn more

10-Day Weather Forecast

Advertisements
Track Severe Weather on mobile